Time;durP1;ratioP1;P1;durP2;ratioP2;P2;SDS_P1;SDS_P2;PMS_P1;PMS_P2;Temp;Humidity;BMP_temperature;BMP_pressure;BME280_temperature;BME280_humidity;BME280_pressure;Samples;Min_cycle;Max_cycle;Signal;HPM_P1;HPM_P2
2022/06/10 00:00:42;;;;;;;;;28.67;25.67;;;;;23.32;69.07;100668.00;110285;1264;18717;-49
2022/06/10 00:03:09;;;;;;;;;26.00;24.67;;;;;23.30;69.40;100668.34;110296;1265;20971;-48
2022/06/10 00:05:37;;;;;;;;;25.67;24.00;;;;;23.34;69.30;100670.15;110289;1264;18518;-48
2022/06/10 00:08:05;;;;;;;;;27.00;24.00;;;;;23.36;69.16;100674.90;110303;1264;19085;-47
2022/06/10 00:10:32;;;;;;;;;29.67;24.33;;;;;23.41;69.08;100672.58;110320;1264;18722;-49
2022/06/10 00:13:00;;;;;;;;;29.67;27.33;;;;;23.42;69.00;100678.44;110358;1264;18410;-48
2022/06/10 00:15:27;;;;;;;;;29.50;25.00;;;;;23.40;68.98;100678.84;110303;1265;22209;-48
2022/06/10 00:17:54;;;;;;;;;29.33;27.00;;;;;23.31;69.29;100674.00;110319;1264;18696;-48
2022/06/10 00:20:22;;;;;;;;;30.00;28.50;;;;;23.26;69.63;100674.87;110271;1264;18271;-47
2022/06/10 00:22:49;;;;;;;;;30.33;25.67;;;;;23.20;69.67;100676.12;110313;1265;18691;-49
2022/06/10 00:25:17;;;;;;;;;31.50;29.00;;;;;23.09;70.06;100672.19;110247;1264;18794;-47
2022/06/10 00:27:44;;;;;;;;;34.00;28.00;;;;;23.11;69.94;100671.98;110377;1264;18482;-48
2022/06/10 00:30:12;;;;;;;;;29.67;28.00;;;;;23.15;69.90;100671.69;110256;1265;18762;-49
2022/06/10 00:32:39;;;;;;;;;32.00;29.00;;;;;23.20;69.72;100674.32;110272;1265;18852;-47
2022/06/10 00:35:06;;;;;;;;;33.00;27.50;;;;;23.21;69.59;100675.49;110263;1264;22014;-49
2022/06/10 00:37:34;;;;;;;;;29.00;25.33;;;;;23.23;69.72;100671.77;110309;1265;18747;-47
2022/06/10 00:40:01;;;;;;;;;33.00;30.00;;;;;23.24;69.69;100677.29;110349;1263;18837;-48
2022/06/10 00:42:29;;;;;;;;;30.33;28.00;;;;;23.18;69.79;100679.27;110280;1264;18298;-47
2022/06/10 00:44:56;;;;;;;;;30.00;26.67;;;;;23.17;69.76;100678.45;110270;1264;19142;-47
2022/06/10 00:47:23;;;;;;;;;30.00;28.00;;;;;23.20;69.71;100680.11;110287;1264;18788;-48
2022/06/10 00:49:50;;;;;;;;;36.50;32.00;;;;;23.24;69.53;100680.91;110298;1264;18196;-49
2022/06/10 00:52:22;;;;;;;;;34.00;30.33;;;;;23.19;69.70;100682.59;110327;1265;19432;-48
2022/06/10 00:54:49;;;;;;;;;29.33;28.00;;;;;23.17;69.84;100679.87;110212;1264;18771;-47
2022/06/10 00:57:17;;;;;;;;;28.67;27.33;;;;;23.19;69.80;100682.64;110269;1264;18387;-47
2022/06/10 00:59:44;;;;;;;;;29.33;28.00;;;;;23.18;69.72;100682.73;110276;1265;18836;-48
2022/06/10 01:02:11;;;;;;;;;32.50;29.00;;;;;23.16;69.70;100682.63;110246;1264;19514;-48
2022/06/10 01:04:40;;;;;;;;;31.67;30.00;;;;;23.15;69.73;100686.16;110289;1264;18403;-48
2022/06/10 01:07:08;;;;;;;;;31.00;28.00;;;;;23.16;69.79;100686.67;110275;1265;19014;-47
2022/06/10 01:09:35;;;;;;;;;32.67;29.67;;;;;23.18;69.62;100688.77;110331;1264;18747;-47
2022/06/10 01:12:02;;;;;;;;;35.33;29.67;;;;;23.17;69.65;100687.11;110293;1264;18265;-48
2022/06/10 01:14:29;;;;;;;;;34.00;30.00;;;;;23.15;69.73;100690.82;110278;1264;21628;-47
2022/06/10 01:16:57;;;;;;;;;32.50;31.00;;;;;23.12;69.88;100688.02;110317;1264;18769;-48
2022/06/10 01:19:24;;;;;;;;;33.50;29.00;;;;;23.13;69.73;100688.86;110316;1264;18342;-48
2022/06/10 01:21:52;;;;;;;;;35.33;32.67;;;;;23.16;69.70;100688.44;110306;1264;19046;-48
2022/06/10 01:24:19;;;;;;;;;29.33;27.33;;;;;23.16;69.68;100690.41;110297;1265;20547;-48
2022/06/10 01:29:32;;;;;;;;;31.00;28.00;;;;;23.14;69.70;100693.13;110275;1264;18992;-47
2022/06/10 01:31:59;;;;;;;;;33.50;32.00;;;;;23.11;69.84;100699.45;110175;1265;19071;-47
2022/06/10 01:34:28;;;;;;;;;31.67;30.67;;;;;23.13;69.77;100698.26;110259;1264;23793;-48
2022/06/10 01:36:55;;;;;;;;;39.67;33.33;;;;;23.14;69.63;100697.60;110328;1264;18743;-47
2022/06/10 01:39:23;;;;;;;;;36.33;34.00;;;;;23.13;69.50;100701.74;110258;1265;21987;-47
2022/06/10 01:41:50;;;;;;;;;38.67;32.67;;;;;23.12;69.72;100706.98;110155;1267;18245;-48
2022/06/10 01:44:17;;;;;;;;;36.00;32.00;;;;;23.08;69.75;100704.45;110296;1265;18762;-48
2022/06/10 01:46:44;;;;;;;;;34.50;29.50;;;;;23.04;69.79;100704.55;110339;1264;19285;-48
2022/06/10 01:49:12;;;;;;;;;36.33;32.33;;;;;23.06;69.71;100705.83;110310;1264;18379;-48
2022/06/10 01:51:39;;;;;;;;;36.00;33.00;;;;;23.08;69.73;100705.83;110294;1265;18761;-48
2022/06/10 01:54:06;;;;;;;;;41.33;34.33;;;;;23.03;69.81;100698.48;110307;1265;18821;-48
2022/06/10 01:56:35;;;;;;;;;38.33;33.67;;;;;22.99;69.86;100704.52;110285;1264;22201;-48
2022/06/10 01:59:02;;;;;;;;;34.33;29.67;;;;;23.04;69.97;100708.91;110288;1264;18726;-47
2022/06/10 02:01:29;;;;;;;;;38.00;37.00;;;;;23.07;69.83;100714.75;110328;1264;18810;-48
2022/06/10 02:03:57;;;;;;;;;42.33;36.33;;;;;23.10;69.43;100716.31;110360;1264;18508;-48
2022/06/10 02:06:24;;;;;;;;;36.33;33.67;;;;;23.13;69.38;100724.54;110295;1264;18756;-46
2022/06/10 02:08:51;;;;;;;;;37.67;33.33;;;;;23.13;69.36;100729.13;110325;1264;18818;-47
2022/06/10 02:11:18;;;;;;;;;39.33;36.00;;;;;23.13;69.33;100729.67;110243;1265;23183;-47
2022/06/10 02:13:46;;;;;;;;;37.50;32.00;;;;;23.16;69.38;100734.14;110279;1264;18705;-48
2022/06/10 02:16:13;;;;;;;;;36.00;35.67;;;;;23.17;69.36;100740.43;110315;1265;19423;-48
2022/06/10 02:18:40;;;;;;;;;38.67;34.67;;;;;23.17;69.24;100743.33;110327;1265;22082;-48
2022/06/10 02:21:07;;;;;;;;;34.33;32.67;;;;;23.19;69.35;100742.91;110134;1264;19386;-47
2022/06/10 02:23:35;;;;;;;;;43.67;37.00;;;;;23.15;69.38;100740.21;110288;1264;18818;-48
2022/06/10 02:26:04;;;;;;;;;38.50;34.50;;;;;23.13;69.31;100739.83;110283;1264;19274;-47
2022/06/10 02:28:31;;;;;;;;;37.00;32.00;;;;;23.11;69.48;100744.11;110332;1265;19252;-47
2022/06/10 02:30:58;;;;;;;;;39.00;33.00;;;;;23.17;69.22;100752.81;110225;1265;18820;-47
2022/06/10 02:33:25;;;;;;;;;37.50;31.50;;;;;23.11;69.29;100756.27;110303;1264;21567;-48
2022/06/10 02:35:53;;;;;;;;;38.33;34.33;;;;;23.11;69.36;100756.86;110332;1265;18941;-48
2022/06/10 02:38:20;;;;;;;;;35.00;33.00;;;;;23.15;69.27;100760.56;110273;1264;19053;-47
2022/06/10 02:40:47;;;;;;;;;39.00;36.00;;;;;23.18;69.07;100762.92;110333;1265;18305;-48
2022/06/10 02:43:14;;;;;;;;;34.50;33.00;;;;;23.16;68.96;100762.77;110250;1265;21568;-46
2022/06/10 02:45:41;;;;;;;;;38.33;35.00;;;;;23.14;68.97;100766.73;110330;1264;19006;-48
2022/06/10 02:48:09;;;;;;;;;40.33;34.33;;;;;23.12;69.13;100768.56;110216;1265;18333;-48
2022/06/10 02:50:36;;;;;;;;;39.67;38.00;;;;;23.16;68.96;100772.15;110280;1265;18718;-49
2022/06/10 02:53:04;;;;;;;;;39.00;32.33;;;;;23.19;68.77;100774.16;110283;1264;18747;-48
2022/06/10 02:55:31;;;;;;;;;38.00;34.50;;;;;23.20;68.74;100775.52;110299;1264;24480;-47
2022/06/10 03:03:29;;;;;;;;;41.00;36.33;;;;;23.22;68.69;100782.01;110335;1265;18473;-48
2022/06/10 03:05:56;;;;;;;;;39.00;35.50;;;;;23.23;68.65;100782.03;110323;1264;18810;-48
2022/06/10 03:08:24;;;;;;;;;42.67;36.00;;;;;23.22;68.67;100781.73;110319;1264;18721;-50
2022/06/10 03:10:51;;;;;;;;;41.50;36.50;;;;;23.21;68.78;100784.11;110367;1265;18519;-47
2022/06/10 03:13:19;;;;;;;;;39.33;36.67;;;;;23.17;68.87;100789.86;110256;1264;18757;-47
2022/06/10 03:15:47;;;;;;;;;42.00;37.67;;;;;23.21;68.84;100792.91;110323;1264;19455;-48
2022/06/10 03:18:14;;;;;;;;;40.00;37.00;;;;;23.24;68.73;100791.24;110321;1264;19406;-48
2022/06/10 03:20:41;;;;;;;;;37.00;36.00;;;;;23.26;68.68;100795.67;110327;1264;18682;-48
2022/06/10 03:23:08;;;;;;;;;42.00;37.67;;;;;23.28;68.57;100798.96;110326;1264;18736;-47
2022/06/10 03:25:36;;;;;;;;;38.00;34.00;;;;;23.29;68.44;100804.27;110311;1264;18255;-48
2022/06/10 03:28:04;;;;;;;;;39.00;34.50;;;;;23.32;68.50;100802.89;110363;1264;21535;-48
2022/06/10 03:30:31;;;;;;;;;38.00;34.00;;;;;23.36;68.22;100803.14;110299;1264;18816;-47
2022/06/10 03:32:58;;;;;;;;;37.00;35.33;;;;;23.38;68.25;100806.06;110317;1265;19444;-47
2022/06/10 03:35:27;;;;;;;;;35.00;34.00;;;;;23.35;68.18;100810.81;110335;1264;19048;-47
2022/06/10 03:37:54;;;;;;;;;38.00;33.67;;;;;23.32;68.33;100817.87;110263;1265;19561;-49
2022/06/10 03:40:22;;;;;;;;;39.33;33.67;;;;;23.31;68.47;100820.55;110308;1264;19469;-44
2022/06/10 03:42:49;;;;;;;;;33.33;32.33;;;;;23.33;68.39;100826.77;110323;1264;18696;-48
2022/06/10 03:45:16;;;;;;;;;33.67;30.67;;;;;23.32;68.41;100829.98;110242;1265;18893;-47
2022/06/10 03:47:43;;;;;;;;;39.50;33.00;;;;;23.30;68.28;100832.01;110277;1264;18407;-46
2022/06/10 03:50:12;;;;;;;;;35.33;33.00;;;;;23.30;68.35;100829.48;110303;1265;18976;-47
2022/06/10 03:52:39;;;;;;;;;38.67;34.33;;;;;23.29;68.59;100838.48;110283;1264;18851;-46
2022/06/10 03:55:07;;;;;;;;;41.00;36.67;;;;;23.27;68.56;100839.55;110360;1264;18504;-48
2022/06/10 03:57:34;;;;;;;;;32.33;29.67;;;;;23.24;68.70;100843.75;110264;1264;18852;-47
2022/06/10 04:00:01;;;;;;;;;33.33;29.00;;;;;23.28;68.49;100846.38;110299;1265;18777;-48
2022/06/10 04:02:28;;;;;;;;;34.67;32.00;;;;;23.28;68.43;100852.86;110281;1264;18214;-47
2022/06/10 04:04:56;;;;;;;;;31.33;29.67;;;;;23.27;68.45;100850.41;110294;1264;20561;-47
2022/06/10 04:07:23;;;;;;;;;36.33;30.00;;;;;23.26;68.50;100858.02;110285;1264;20765;-47
2022/06/10 04:09:51;;;;;;;;;38.00;31.67;;;;;23.26;68.69;100860.62;110240;1265;18289;-48
2022/06/10 04:12:21;;;;;;;;;33.50;29.50;;;;;23.25;68.59;100861.49;110207;1265;19225;-47
2022/06/10 04:14:49;;;;;;;;;29.00;26.50;;;;;23.22;68.67;100863.25;110211;1264;18751;-46
2022/06/10 04:17:16;;;;;;;;;28.00;25.33;;;;;23.20;68.81;100867.36;110181;1265;18218;-46
2022/06/10 04:19:43;;;;;;;;;29.67;25.00;;;;;23.22;68.69;100868.39;110260;1264;18837;-47
2022/06/10 04:22:11;;;;;;;;;24.00;21.33;;;;;23.23;68.48;100873.20;110319;1264;19446;-49
2022/06/10 04:24:38;;;;;;;;;23.33;22.00;;;;;23.19;68.51;100879.05;110317;1265;22091;-48
2022/06/10 04:27:05;;;;;;;;;28.67;26.00;;;;;23.19;68.34;100884.18;110314;1264;22042;-48
2022/06/10 04:29:32;;;;;;;;;25.00;24.33;;;;;23.16;68.26;100892.66;110297;1264;19250;-47
2022/06/10 04:32:00;;;;;;;;;28.33;26.33;;;;;23.12;68.05;100901.45;110227;1264;18260;-49
2022/06/10 04:34:27;;;;;;;;;25.00;24.33;;;;;23.12;68.04;100906.00;110177;1264;19070;-48
2022/06/10 04:36:54;;;;;;;;;30.33;28.00;;;;;23.10;67.92;100909.33;110316;1264;20253;-46
2022/06/10 04:39:22;;;;;;;;;25.67;24.33;;;;;23.05;67.67;100913.37;110292;1264;18476;-48
2022/06/10 04:41:49;;;;;;;;;34.00;28.00;;;;;23.00;67.71;100914.16;110264;1263;18761;-45
2022/06/10 04:44:16;;;;;;;;;31.67;28.00;;;;;22.95;67.66;100917.84;110260;1264;18791;-45
2022/06/10 04:46:43;;;;;;;;;28.00;27.00;;;;;23.02;67.40;100921.73;110279;1265;18353;-48
2022/06/10 04:49:10;;;;;;;;;32.00;30.00;;;;;23.04;67.15;100928.20;110309;1264;18756;-48
2022/06/10 04:51:38;;;;;;;;;33.67;31.00;;;;;23.00;66.91;100929.65;110294;1264;18702;-47
2022/06/10 04:54:05;;;;;;;;;31.00;29.00;;;;;22.95;66.83;100936.80;110289;1264;21557;-48
2022/06/10 04:56:32;;;;;;;;;30.00;28.00;;;;;22.98;66.62;100943.80;110226;1265;18759;-48
2022/06/10 04:59:00;;;;;;;;;33.00;32.67;;;;;23.00;66.39;100947.86;110221;1264;18709;-48
2022/06/10 05:01:27;;;;;;;;;28.50;27.00;;;;;23.04;66.06;100954.11;110272;1264;18359;-48
2022/06/10 05:03:54;;;;;;;;;26.67;25.33;;;;;23.04;65.90;100958.61;110310;1264;20785;-48
2022/06/10 05:06:21;;;;;;;;;29.67;27.33;;;;;23.05;66.02;100964.92;110284;1264;18822;-49
2022/06/10 05:08:49;;;;;;;;;27.33;25.33;;;;;23.00;66.02;100968.01;110261;1264;22248;-50
2022/06/10 05:11:17;;;;;;;;;31.67;29.67;;;;;23.00;65.85;100967.80;110253;1264;18748;-48
2022/06/10 05:13:44;;;;;;;;;29.67;28.33;;;;;23.04;65.36;100974.47;110177;1267;18742;-47
2022/06/10 05:16:11;;;;;;;;;33.00;30.67;;;;;23.00;64.34;100977.77;110076;1264;18261;-52
2022/06/10 05:18:39;;;;;;;;;27.00;26.00;;;;;22.90;64.28;100982.42;110099;1264;25827;-47
2022/06/10 05:21:06;;;;;;;;;25.00;24.67;;;;;22.73;64.34;100989.65;110245;1265;18824;-49
2022/06/10 05:23:33;;;;;;;;;31.00;28.00;;;;;22.56;64.46;100993.15;110279;1264;18302;-46
2022/06/10 05:26:01;;;;;;;;;28.00;25.33;;;;;22.53;64.41;101002.49;110246;1265;18882;-50
2022/06/10 05:28:28;;;;;;;;;24.00;22.67;;;;;22.54;64.44;101005.94;110249;1265;21647;-49
2022/06/10 05:30:55;;;;;;;;;37.00;34.50;;;;;22.52;64.31;101011.82;110292;1264;18113;-49
2022/06/10 05:33:23;;;;;;;;;33.00;27.00;;;;;22.51;64.27;101017.66;110280;1264;19042;-49
2022/06/10 05:35:50;;;;;;;;;29.00;27.33;;;;;22.60;64.46;101020.59;110262;1265;18796;-48
2022/06/10 05:38:17;;;;;;;;;31.33;28.33;;;;;22.87;64.51;101024.85;110167;1264;18366;-49
2022/06/10 05:40:45;;;;;;;;;31.50;28.00;;;;;23.09;64.52;101024.69;110270;1265;18731;-48
2022/06/10 05:43:12;;;;;;;;;32.33;25.00;;;;;23.24;64.20;101022.40;110119;1265;228460;-50
2022/06/10 05:45:39;;;;;;;;;24.67;23.00;;;;;23.37;64.17;101027.56;110325;1265;18674;-47
2022/06/10 05:48:06;;;;;;;;;23.67;20.00;;;;;23.47;63.97;101033.43;110282;1264;18699;-49
2022/06/10 05:50:34;;;;;;;;;22.00;20.50;;;;;23.54;63.87;101036.58;110289;1264;18717;-47
2022/06/10 05:53:02;;;;;;;;;22.67;21.00;;;;;23.58;63.64;101036.28;110282;1263;18544;-48
2022/06/10 05:55:29;;;;;;;;;19.33;19.00;;;;;23.59;63.44;101044.00;110281;1264;20575;-48
2022/06/10 05:57:57;;;;;;;;;18.67;18.00;;;;;23.58;63.14;101047.87;110288;1264;18781;-48
2022/06/10 06:00:24;;;;;;;;;19.50;19.00;;;;;23.59;62.91;101049.48;110238;1264;22176;-48
2022/06/10 06:02:51;;;;;;;;;23.33;18.67;;;;;23.61;63.12;101051.59;110250;1264;18732;-48
2022/06/10 06:05:18;;;;;;;;;19.67;19.33;;;;;23.66;63.01;101049.67;110169;1266;18715;-47
2022/06/10 06:07:46;;;;;;;;;19.33;19.00;;;;;23.69;62.72;101049.53;110277;1265;21044;-48
2022/06/10 06:10:13;;;;;;;;;19.67;18.33;;;;;23.65;62.60;101053.98;110356;1264;19053;-48
2022/06/10 06:12:40;;;;;;;;;20.00;18.00;;;;;23.63;62.95;101053.70;110283;1264;18799;-48
2022/06/10 06:15:07;;;;;;;;;16.00;15.00;;;;;23.64;62.87;101058.73;110212;1264;19022;-47
2022/06/10 06:17:35;;;;;;;;;16.33;15.67;;;;;23.62;62.56;101066.36;110257;1264;22311;-47
2022/06/10 06:20:02;;;;;;;;;16.00;14.00;;;;;23.57;62.46;101074.71;110270;1264;18761;-48
2022/06/10 06:22:29;;;;;;;;;20.00;16.00;;;;;23.51;62.51;101079.60;110271;1265;18230;-48
2022/06/10 06:24:56;;;;;;;;;17.00;16.00;;;;;23.50;62.60;101082.90;110287;1265;22137;-48
2022/06/10 06:27:24;;;;;;;;;15.00;14.00;;;;;23.48;62.78;101085.98;110288;1264;18788;-48
2022/06/10 06:29:51;;;;;;;;;17.00;16.00;;;;;23.49;62.63;101089.58;110246;1264;22422;-47
2022/06/10 06:32:18;;;;;;;;;15.00;15.00;;;;;23.40;62.62;101089.14;110248;1264;20103;-47
2022/06/10 06:34:46;;;;;;;;;14.67;14.33;;;;;23.39;62.69;101091.02;110292;1265;18943;-48
2022/06/10 06:37:14;;;;;;;;;14.33;12.67;;;;;23.47;62.72;101089.39;110282;1264;18530;-48
2022/06/10 06:39:41;;;;;;;;;16.33;15.00;;;;;23.55;62.93;101094.97;110299;1265;20240;-47
2022/06/10 06:42:08;;;;;;;;;15.00;15.00;;;;;23.59;63.15;101100.20;110255;1264;23697;-48
2022/06/10 06:44:35;;;;;;;;;14.67;14.67;;;;;23.63;63.84;101104.25;110206;1264;18292;-48
2022/06/10 06:47:03;;;;;;;;;13.00;12.00;;;;;23.63;63.53;101107.52;110222;1264;22014;-49
2022/06/10 06:49:30;;;;;;;;;14.00;12.67;;;;;23.63;63.67;101111.55;110253;1264;18815;-48
2022/06/10 06:51:57;;;;;;;;;14.00;14.00;;;;;23.63;63.41;101111.30;110287;1265;22107;-47
2022/06/10 06:54:25;;;;;;;;;15.00;14.00;;;;;23.64;63.38;101110.84;110268;1264;27857;-47
2022/06/10 06:56:52;;;;;;;;;13.33;12.67;;;;;23.63;63.24;101112.39;110257;1264;18769;-49
2022/06/10 06:59:19;;;;;;;;;17.33;16.00;;;;;23.63;63.33;101109.00;110280;1264;18207;-47
2022/06/10 07:01:47;;;;;;;;;16.00;15.00;;;;;23.58;63.06;101109.79;110246;1264;21882;-47
2022/06/10 07:04:14;;;;;;;;;17.50;17.00;;;;;23.56;62.95;101111.88;110303;1264;19295;-49
2022/06/10 07:06:43;;;;;;;;;20.00;15.00;;;;;23.58;63.15;101113.42;110274;1264;22181;-47
2022/06/10 07:09:10;;;;;;;;;16.00;15.00;;;;;23.55;62.66;101119.14;110270;1264;22039;-47
2022/06/10 07:11:39;;;;;;;;;15.00;15.00;;;;;23.52;62.46;101118.92;110231;1264;18965;-47
2022/06/10 07:14:06;;;;;;;;;14.00;14.00;;;;;23.49;62.28;101117.64;110237;1264;22286;-48
2022/06/10 07:16:33;;;;;;;;;14.50;14.50;;;;;23.44;62.47;101118.25;110247;1264;23328;-48
2022/06/10 07:19:01;;;;;;;;;12.00;12.00;;;;;23.41;62.64;101116.85;110301;1264;21965;-48
2022/06/10 07:21:30;;;;;;;;;14.00;14.00;;;;;23.46;62.75;101122.91;110187;1264;18492;-47
2022/06/10 07:23:57;;;;;;;;;12.00;11.00;;;;;23.45;62.82;101126.44;110278;1264;18564;-48
2022/06/10 07:26:24;;;;;;;;;12.00;12.00;;;;;23.50;62.75;101121.84;110271;1264;18984;-47
2022/06/10 07:28:51;;;;;;;;;13.67;12.00;;;;;23.52;62.88;101124.89;110264;1264;22809;-46
2022/06/10 07:31:20;;;;;;;;;14.67;13.33;;;;;23.54;62.94;101125.90;110210;1264;19164;-46
2022/06/10 07:33:47;;;;;;;;;15.00;15.00;;;;;23.55;62.56;101128.06;110232;1264;18798;-48
2022/06/10 07:36:14;;;;;;;;;15.00;15.00;;;;;23.57;62.41;101130.66;110192;1264;19253;-47
2022/06/10 07:38:41;;;;;;;;;14.67;14.00;;;;;23.57;62.40;101134.57;110197;1265;18848;-47
2022/06/10 07:43:54;;;;;;;;;16.00;15.00;;;;;23.56;62.44;101144.91;110212;1264;18266;-47
2022/06/10 07:46:21;;;;;;;;;14.67;14.00;;;;;23.55;62.49;101150.25;110151;1264;22557;-47
2022/06/10 07:48:48;;;;;;;;;14.67;14.00;;;;;23.55;62.50;101153.92;110183;1264;22083;-44
2022/06/10 07:51:15;;;;;;;;;15.67;14.67;;;;;23.54;62.45;101159.13;110259;1264;19038;-45
2022/06/10 07:53:43;;;;;;;;;14.33;13.33;;;;;23.52;62.39;101162.30;110241;1264;18902;-45
2022/06/10 07:56:10;;;;;;;;;18.00;15.00;;;;;23.45;62.58;101163.46;110242;1264;18824;-45
2022/06/10 07:58:38;;;;;;;;;16.00;15.00;;;;;23.43;62.74;101169.04;110231;1264;18497;-46
2022/06/10 08:01:05;;;;;;;;;14.33;13.33;;;;;23.44;62.65;101179.14;110318;1265;18709;-47
2022/06/10 08:03:32;;;;;;;;;14.00;12.00;;;;;23.45;62.80;101176.77;110217;1265;20722;-49
2022/06/10 08:05:59;;;;;;;;;12.00;12.00;;;;;23.57;62.82;101179.07;110232;1264;18303;-46
2022/06/10 08:08:27;;;;;;;;;15.00;14.00;;;;;23.68;62.55;101180.77;110282;1265;21944;-48
2022/06/10 08:10:54;;;;;;;;;15.00;14.33;;;;;23.75;62.22;101184.39;110285;1264;18756;-47
2022/06/10 08:13:21;;;;;;;;;14.00;14.00;;;;;23.76;61.98;101187.70;110231;1264;19226;-47
2022/06/10 08:15:49;;;;;;;;;14.67;13.33;;;;;23.70;62.04;101187.28;110273;1264;20127;-47
2022/06/10 08:18:16;;;;;;;;;15.00;14.67;;;;;23.50;62.51;101188.01;110274;1264;21975;-47
2022/06/10 08:23:28;;;;;;;;;15.00;15.00;;;;;23.11;63.41;101194.54;110234;1264;18705;-46
2022/06/10 08:25:56;;;;;;;;;16.67;15.00;;;;;22.94;64.00;101196.02;110277;1265;18930;-46
2022/06/10 08:28:23;;;;;;;;;15.33;15.33;;;;;22.84;64.21;101194.41;110264;1264;18185;-45
2022/06/10 08:30:50;;;;;;;;;14.00;14.00;;;;;22.86;64.10;101196.60;110328;1264;18769;-47
2022/06/10 08:33:17;;;;;;;;;14.00;12.00;;;;;22.86;63.93;101198.71;110302;1264;20912;-49
2022/06/10 08:35:45;;;;;;;;;15.00;15.00;;;;;22.87;63.91;101202.67;110239;1264;22746;-47
2022/06/10 08:38:13;;;;;;;;;14.00;14.00;;;;;22.86;63.73;101202.92;110259;1265;18540;-47
2022/06/10 08:40:40;;;;;;;;;14.00;14.00;;;;;22.87;63.67;101205.98;110242;1264;18975;-48
2022/06/10 08:43:08;;;;;;;;;16.00;15.00;;;;;22.85;63.78;101208.87;110296;1264;18325;-48
2022/06/10 08:45:35;;;;;;;;;16.00;14.00;;;;;22.86;63.76;101207.13;110198;1264;18849;-47
2022/06/10 08:48:03;;;;;;;;;18.33;16.67;;;;;22.87;63.47;101206.84;110265;1264;18682;-48
2022/06/10 08:50:30;;;;;;;;;18.67;18.00;;;;;22.94;63.80;101203.84;110153;1264;19922;-47
2022/06/10 08:52:57;;;;;;;;;23.33;20.00;;;;;23.08;63.45;101208.58;110185;1265;18975;-48
2022/06/10 08:55:24;;;;;;;;;23.50;22.00;;;;;23.25;63.76;101211.16;110269;1265;19384;-47
2022/06/10 08:57:53;;;;;;;;;24.33;21.33;;;;;23.38;63.77;101210.69;110269;1264;19602;-48
2022/06/10 09:00:21;;;;;;;;;20.33;18.67;;;;;23.43;63.70;101217.58;110198;1264;18782;-45
2022/06/10 09:02:48;;;;;;;;;21.33;21.00;;;;;23.45;64.34;101218.19;110118;1264;20777;-46
2022/06/10 09:05:15;;;;;;;;;23.67;20.33;;;;;23.49;64.49;101223.56;110217;1264;18222;-47
2022/06/10 09:07:43;;;;;;;;;14.00;14.00;;;;;23.54;64.89;101225.84;110183;1265;18768;-47
2022/06/10 09:10:10;;;;;;;;;16.00;15.33;;;;;23.55;65.04;101225.39;110250;1264;18773;-48
2022/06/10 09:12:37;;;;;;;;;16.00;15.00;;;;;23.57;65.09;101229.71;110162;1264;18173;-47
2022/06/10 09:15:04;;;;;;;;;13.33;13.33;;;;;23.55;64.09;101231.48;110213;1264;18721;-48
2022/06/10 09:17:33;;;;;;;;;15.00;14.67;;;;;23.52;63.78;101232.83;110172;1264;18759;-47
2022/06/10 09:20:00;;;;;;;;;15.67;15.00;;;;;23.52;63.52;101232.90;110178;1265;20230;-46
2022/06/10 09:22:27;;;;;;;;;14.00;12.00;;;;;23.54;63.54;101236.17;109964;1264;18739;-47
2022/06/10 09:24:55;;;;;;;;;14.50;14.00;;;;;23.46;63.34;101241.98;110078;1264;19019;-46
2022/06/10 09:27:22;;;;;;;;;14.00;12.00;;;;;23.46;63.46;101243.80;110053;1265;18316;-47
2022/06/10 09:29:49;;;;;;;;;13.33;11.67;;;;;23.46;63.32;101243.23;110246;1265;22132;-48
2022/06/10 09:32:16;;;;;;;;;11.00;11.00;;;;;23.46;63.18;101243.63;110075;1264;20114;-46
2022/06/10 09:34:44;;;;;;;;;15.00;12.00;;;;;23.47;63.21;101247.16;110114;1264;18626;-47
2022/06/10 09:37:11;;;;;;;;;12.00;12.00;;;;;23.43;63.12;101253.70;109978;1264;18872;-48
2022/06/10 09:42:23;;;;;;;;;15.50;14.00;;;;;23.36;63.21;101253.45;110207;1264;19994;-46
2022/06/10 09:44:51;;;;;;;;;14.67;13.33;;;;;23.36;63.00;101258.98;110200;1264;18778;-49
2022/06/10 09:47:18;;;;;;;;;14.00;14.00;;;;;23.37;62.94;101261.86;110163;1264;18757;-50
2022/06/10 09:49:45;;;;;;;;;11.67;11.67;;;;;23.33;63.01;101264.30;110208;1264;19342;-46
2022/06/10 09:52:12;;;;;;;;;10.67;10.00;;;;;23.32;62.93;101263.49;110206;1264;23527;-46
2022/06/10 09:54:40;;;;;;;;;12.67;12.00;;;;;23.35;62.84;101269.31;110252;1264;19034;-47
2022/06/10 09:57:07;;;;;;;;;11.00;10.33;;;;;23.39;62.77;101276.16;110259;1264;19214;-47
2022/06/10 09:59:34;;;;;;;;;10.67;10.67;;;;;23.42;62.59;101276.71;110267;1264;18886;-46
2022/06/10 10:02:02;;;;;;;;;11.50;9.50;;;;;23.44;62.42;101281.98;110291;1264;18799;-48
2022/06/10 10:04:29;;;;;;;;;10.67;10.33;;;;;23.43;62.25;101287.56;110292;1264;18188;-47
2022/06/10 10:06:57;;;;;;;;;11.00;10.00;;;;;23.44;62.32;101289.43;110237;1264;22205;-45
2022/06/10 10:09:24;;;;;;;;;12.67;11.33;;;;;23.47;62.00;101294.20;110246;1264;18744;-45
2022/06/10 10:11:51;;;;;;;;;13.33;13.33;;;;;23.47;62.16;101292.42;110236;1264;18297;-45
2022/06/10 10:14:19;;;;;;;;;14.00;12.00;;;;;23.47;62.11;101297.90;110150;1264;21029;-43
2022/06/10 10:16:46;;;;;;;;;10.50;10.50;;;;;23.46;62.15;101296.29;110219;1264;21857;-45
2022/06/10 10:19:13;;;;;;;;;14.00;11.00;;;;;23.49;61.96;101297.10;110288;1264;19375;-47
2022/06/10 10:21:41;;;;;;;;;10.00;10.00;;;;;23.50;61.97;101292.61;110242;1264;22375;-46
2022/06/10 10:24:08;;;;;;;;;10.67;10.67;;;;;23.50;62.18;101292.75;110271;1265;18686;-46
2022/06/10 10:26:35;;;;;;;;;14.00;11.00;;;;;23.51;62.17;101289.21;110263;1265;18482;-48
2022/06/10 10:29:02;;;;;;;;;11.33;11.00;;;;;23.47;62.20;101292.90;110301;1264;18764;-47
2022/06/10 10:31:30;;;;;;;;;14.00;14.00;;;;;23.44;62.43;101294.19;110191;1265;19527;-47
2022/06/10 10:33:57;;;;;;;;;12.00;12.00;;;;;23.46;62.48;101296.52;110260;1264;22111;-47
2022/06/10 10:36:24;;;;;;;;;12.67;12.00;;;;;23.48;62.45;101297.62;110290;1265;18984;-48
2022/06/10 10:38:51;;;;;;;;;12.00;11.00;;;;;23.48;62.07;101300.49;110247;1265;20374;-47
2022/06/10 10:41:19;;;;;;;;;12.00;11.00;;;;;23.52;62.25;101304.13;110292;1264;18279;-47
2022/06/10 10:43:46;;;;;;;;;11.33;11.00;;;;;23.52;62.23;101302.64;110220;1264;18736;-47
2022/06/10 10:46:13;;;;;;;;;11.33;11.33;;;;;23.51;62.18;101302.55;110129;1264;18820;-46
2022/06/10 10:48:40;;;;;;;;;15.00;14.00;;;;;23.49;62.02;101303.14;110203;1264;18347;-46
2022/06/10 10:51:08;;;;;;;;;12.00;11.00;;;;;23.45;62.15;101304.42;110282;1264;22284;-48
2022/06/10 10:53:35;;;;;;;;;15.67;14.67;;;;;23.52;62.04;101302.58;110254;1264;18870;-46
2022/06/10 10:56:02;;;;;;;;;15.00;14.67;;;;;23.58;62.18;101303.11;110226;1265;22545;-45
2022/06/10 10:58:29;;;;;;;;;17.33;16.00;;;;;23.56;62.23;101301.39;110263;1264;18807;-46
2022/06/10 11:00:57;;;;;;;;;13.33;12.00;;;;;23.54;62.68;101300.55;110299;1265;23086;-47
2022/06/10 11:03:24;;;;;;;;;16.00;15.00;;;;;23.55;62.98;101300.45;110270;1264;19352;-47
2022/06/10 11:05:52;;;;;;;;;14.33;13.33;;;;;23.56;62.77;101301.39;110166;1265;18749;-46
2022/06/10 11:08:20;;;;;;;;;15.00;14.00;;;;;23.50;62.55;101303.73;110199;1265;18677;-46
2022/06/10 11:10:47;;;;;;;;;13.00;11.50;;;;;23.50;62.77;101306.13;110272;1265;18370;-47
2022/06/10 11:13:14;;;;;;;;;13.00;12.00;;;;;23.56;62.39;101310.48;110217;1264;18923;-48
2022/06/10 11:15:42;;;;;;;;;15.50;13.00;;;;;23.61;62.40;101305.66;110171;1265;21319;-46
2022/06/10 11:18:09;;;;;;;;;12.00;11.00;;;;;23.68;62.77;101307.63;110210;1264;19567;-48